Time;durP1;ratioP1;P1;durP2;ratioP2;P2;SDS_P1;SDS_P2;PMS_P1;PMS_P2;Temp;Humidity;BMP_temperature;BMP_pressure;BME280_temperature;BME280_humidity;BME280_pressure;Samples;Min_cycle;Max_cycle;Signal;HPM_P1;HPM_P2
2022/04/28 00:00:59;;;;;;;8.95;3.33;;;8.70;99.90;;;;;;5074518;28;20048;-65
2022/04/28 00:03:26;;;;;;;9.68;3.25;;;8.70;99.90;;;;;;5056260;28;20056;-66
2022/04/28 00:05:52;;;;;;;11.20;3.47;;;8.70;99.90;;;;;;5073193;28;20135;-64
2022/04/28 00:08:18;;;;;;;10.18;3.25;;;8.70;99.90;;;;;;5072903;28;20057;-64
2022/04/28 00:10:44;;;;;;;8.07;3.25;;;8.70;99.90;;;;;;5056130;28;20044;-63
2022/04/28 00:13:13;;;;;;;8.18;3.22;;;8.70;99.90;;;;;;5073054;28;20041;-65
2022/04/28 00:15:39;;;;;;;6.47;2.88;;;8.70;99.90;;;;;;5073559;28;20485;-64
2022/04/28 00:18:05;;;;;;;10.00;3.85;;;8.70;99.90;;;;;;5073135;28;20052;-64
2022/04/28 00:20:31;;;;;;;11.43;3.47;;;8.60;99.90;;;;;;5073304;28;20474;-65
2022/04/28 00:22:57;;;;;;;7.80;3.08;;;8.60;99.90;;;;;;5073612;28;20048;-64
2022/04/28 00:25:23;;;;;;;8.02;3.30;;;8.60;99.90;;;;;;5072542;28;20048;-63
2022/04/28 00:27:50;;;;;;;9.80;3.33;;;8.70;99.90;;;;;;5073616;28;20102;-63
2022/04/28 00:30:15;;;;;;;11.57;3.95;;;8.50;99.90;;;;;;5073723;28;20127;-65
2022/04/28 00:32:41;;;;;;;11.10;4.03;;;8.60;99.90;;;;;;5073516;28;20478;-64
2022/04/28 00:35:08;;;;;;;9.98;3.88;;;8.60;99.90;;;;;;5073799;28;20099;-65
2022/04/28 00:37:34;;;;;;;7.90;3.20;;;8.60;99.90;;;;;;5071981;28;20127;-63
2022/04/28 00:40:01;;;;;;;11.88;3.60;;;8.60;99.90;;;;;;5073528;28;20040;-64
2022/04/28 00:42:27;;;;;;;9.65;3.75;;;8.60;99.90;;;;;;5073247;28;20044;-64
2022/04/28 00:44:53;;;;;;;6.95;3.05;;;8.60;99.90;;;;;;5073272;28;20060;-64
2022/04/28 00:47:19;;;;;;;7.88;3.13;;;8.60;99.90;;;;;;5072124;28;20399;-63
2022/04/28 00:52:32;;;;;;;7.10;3.78;;;8.60;99.90;;;;;;5072015;28;20068;-64
2022/04/28 00:54:58;;;;;;;11.45;3.88;;;8.60;99.90;;;;;;5073476;28;20049;-64
2022/04/28 00:57:25;;;;;;;8.52;4.13;;;8.60;99.90;;;;;;5073130;28;20044;-65
2022/04/28 00:59:51;;;;;;;10.82;3.90;;;8.60;99.90;;;;;;5072283;28;20086;-65
2022/04/28 01:02:18;;;;;;;10.73;3.72;;;9.10;99.90;;;;;;5072133;28;20045;-64
2022/04/28 01:04:45;;;;;;;9.32;3.70;;;8.60;99.90;;;;;;5073023;28;20087;-64
2022/04/28 01:07:12;;;;;;;7.43;3.63;;;8.60;99.90;;;;;;5072049;28;20044;-65
2022/04/28 01:09:39;;;;;;;7.63;3.55;;;8.50;99.90;;;;;;5072756;28;20119;-64
2022/04/28 01:12:14;;;;;;;8.95;3.67;;;8.50;99.90;;;;;;5071556;28;20071;-64
2022/04/28 01:14:41;;;;;;;7.72;3.67;;;8.50;99.90;;;;;;5072532;28;20398;-64
2022/04/28 01:17:07;;;;;;;12.15;4.00;;;8.60;99.90;;;;;;5072907;28;20482;-65
2022/04/28 01:19:32;;;;;;;10.52;3.90;;;8.60;99.90;;;;;;5071430;28;20090;-64
2022/04/28 01:21:58;;;;;;;13.27;4.15;;;8.50;99.90;;;;;;5071814;28;20044;-64
2022/04/28 01:24:24;;;;;;;7.10;2.90;;;8.50;99.90;;;;;;5072778;28;20059;-64
2022/04/28 01:26:54;;;;;;;10.25;4.20;;;8.50;99.90;;;;;;5072165;28;20045;-63
2022/04/28 01:29:19;;;;;;;7.18;3.22;;;8.60;99.90;;;;;;5071301;28;20048;-64
2022/04/28 01:31:45;;;;;;;7.18;3.47;;;8.50;99.90;;;;;;5054646;28;20379;-64
2022/04/28 01:34:11;;;;;;;11.35;4.00;;;8.50;99.90;;;;;;5072489;28;20131;-64
2022/04/28 01:36:37;;;;;;;8.52;4.22;;;8.40;99.90;;;;;;5070908;28;20048;-64
2022/04/28 01:39:09;;;;;;;11.73;4.22;;;8.40;99.90;;;;;;5072492;28;20050;-64
2022/04/28 01:41:35;;;;;;;11.70;4.15;;;8.50;99.90;;;;;;5071120;28;20048;-65
2022/04/28 01:44:01;;;;;;;9.02;4.10;;;8.40;99.90;;;;;;5072400;28;20048;-64
2022/04/28 01:46:28;;;;;;;11.23;3.95;;;8.50;99.90;;;;;;5071257;28;20102;-65
2022/04/28 01:48:54;;;;;;;11.20;4.25;;;8.50;99.90;;;;;;5072049;28;20048;-64
2022/04/28 01:56:48;;;;;;;10.20;3.55;;;8.50;99.90;;;;;;5071188;28;20053;-63
2022/04/28 01:59:14;;;;;;;11.93;3.95;;;8.50;99.90;;;;;;5054090;28;20040;-64
2022/04/28 02:01:39;;;;;;;9.57;3.40;;;8.60;99.90;;;;;;5071757;28;20055;-64
2022/04/28 02:04:05;;;;;;;8.65;3.70;;;8.60;99.90;;;;;;5070849;28;20044;-66
2022/04/28 02:06:31;;;;;;;9.13;3.67;;;8.60;99.90;;;;;;5072144;28;20045;-63
2022/04/28 02:08:57;;;;;;;8.75;3.92;;;8.60;99.90;;;;;;5070264;28;20052;-65
2022/04/28 02:11:23;;;;;;;9.68;3.53;;;8.60;99.90;;;;;;5070938;28;20063;-64
2022/04/28 02:13:48;;;;;;;13.05;4.05;;;8.60;99.90;;;;;;5071662;28;20407;-65
2022/04/28 02:16:14;;;;;;;7.50;3.53;;;8.60;99.90;;;;;;5071823;28;20131;-64
2022/04/28 02:18:40;;;;;;;9.48;3.45;;;8.60;99.90;;;;;;5070197;28;20078;-64
2022/04/28 02:21:06;;;;;;;8.40;3.83;;;8.60;99.90;;;;;;5071768;28;20071;-64
2022/04/28 02:23:32;;;;;;;9.07;4.07;;;8.60;99.90;;;;;;5071759;28;20070;-63
2022/04/28 02:25:58;;;;;;;8.98;4.20;;;8.60;99.90;;;;;;5071240;28;20463;-64
2022/04/28 02:28:25;;;;;;;8.65;3.58;;;8.60;99.90;;;;;;5070784;28;20465;-64
2022/04/28 02:30:50;;;;;;;11.07;4.10;;;8.50;99.90;;;;;;5071244;28;20402;-64
2022/04/28 02:33:18;;;;;;;8.80;3.65;;;8.50;99.90;;;;;;5070435;28;20044;-64
2022/04/28 02:35:44;;;;;;;6.57;3.30;;;8.50;99.90;;;;;;5053563;28;20135;-64
2022/04/28 02:38:10;;;;;;;12.15;4.38;;;8.50;99.90;;;;;;5070138;28;20143;-64
2022/04/28 02:40:36;;;;;;;9.75;3.92;;;8.50;99.90;;;;;;5070423;28;20044;-65
2022/04/28 02:43:02;;;;;;;11.30;3.60;;;8.40;99.90;;;;;;5069771;28;20367;-64
2022/04/28 02:45:27;;;;;;;12.55;4.25;;;8.40;99.90;;;;;;5053232;28;20052;-64
2022/04/28 02:47:53;;;;;;;9.60;3.55;;;8.50;99.90;;;;;;5069699;28;20057;-64
2022/04/28 02:50:21;;;;;;;9.77;3.83;;;8.50;99.90;;;;;;5071631;28;20049;-64
2022/04/28 02:52:49;;;;;;;10.45;3.97;;;8.50;99.90;;;;;;5070199;28;20056;-64
2022/04/28 02:55:15;;;;;;;10.23;3.88;;;8.50;99.90;;;;;;5071382;28;20044;-67
2022/04/28 02:57:41;;;;;;;9.50;3.70;;;8.50;99.90;;;;;;5071220;28;20098;-65
2022/04/28 03:00:07;;;;;;;9.57;3.60;;;8.50;99.90;;;;;;5071547;28;20521;-64
2022/04/28 03:02:33;;;;;;;9.75;3.85;;;8.50;99.90;;;;;;5071461;28;20091;-64
2022/04/28 03:05:01;;;;;;;9.32;3.83;;;8.50;99.90;;;;;;5071215;28;20048;-65
2022/04/28 03:13:09;;;;;;;5.45;3.40;;;8.40;99.90;;;;;;5075435;28;20052;-63
2022/04/28 03:15:35;;;;;;;9.00;4.30;;;8.40;99.90;;;;;;5073909;28;20050;-64
2022/04/28 03:18:01;;;;;;;8.63;3.80;;;8.50;99.90;;;;;;5074068;28;20343;-65
2022/04/28 03:20:26;;;;;;;10.45;3.83;;;8.40;99.90;;;;;;5073997;28;20045;-66
2022/04/28 03:22:52;;;;;;;12.40;5.00;;;8.40;99.90;;;;;;5073818;28;20062;-65
2022/04/28 03:25:18;;;;;;;9.23;3.63;;;8.50;99.90;;;;;;5075296;28;20044;-66
2022/04/28 03:27:43;;;;;;;13.32;4.50;;;8.40;99.90;;;;;;5074863;28;20060;-65
2022/04/28 03:30:09;;;;;;;8.18;4.10;;;8.40;99.90;;;;;;5073854;28;20047;-64
2022/04/28 03:32:35;;;;;;;7.90;3.70;;;8.40;99.90;;;;;;5057561;28;20060;-65
2022/04/28 03:35:01;;;;;;;7.53;4.05;;;8.50;99.90;;;;;;5074827;28;20048;-65
2022/04/28 03:37:26;;;;;;;9.70;4.15;;;8.40;99.90;;;;;;5073952;28;20052;-65
2022/04/28 03:39:52;;;;;;;9.05;4.15;;;8.50;99.90;;;;;;5074534;28;20044;-64
2022/04/28 03:42:18;;;;;;;10.60;3.95;;;8.50;99.90;;;;;;5057229;28;20052;-64
2022/04/28 03:44:43;;;;;;;6.35;4.07;;;8.50;99.90;;;;;;5074841;28;20041;-64
2022/04/28 03:47:09;;;;;;;9.20;4.18;;;8.50;99.90;;;;;;5073413;28;20057;-64
2022/04/28 03:49:35;;;;;;;8.05;4.10;;;8.50;99.90;;;;;;5074661;28;20052;-64
2022/04/28 03:52:01;;;;;;;6.97;4.20;;;8.50;99.90;;;;;;5074708;28;20052;-63
2022/04/28 03:54:27;;;;;;;8.25;3.97;;;8.50;99.90;;;;;;5073597;28;20102;-65
2022/04/28 03:56:52;;;;;;;7.63;4.20;;;8.50;99.90;;;;;;5074240;28;20048;-64
2022/04/28 03:59:19;;;;;;;10.35;4.20;;;8.50;99.90;;;;;;5073572;28;20048;-66
2022/04/28 04:01:44;;;;;;;9.43;4.20;;;8.50;99.90;;;;;;5074613;28;20049;-64
2022/04/28 04:04:10;;;;;;;8.07;4.65;;;8.40;99.90;;;;;;5056543;28;20053;-64
2022/04/28 04:06:36;;;;;;;7.65;4.38;;;8.40;99.90;;;;;;5056827;28;20071;-64
2022/04/28 04:09:01;;;;;;;9.07;5.15;;;8.40;99.90;;;;;;5073944;28;20102;-64
2022/04/28 04:11:27;;;;;;;8.70;4.85;;;8.40;99.90;;;;;;5056698;28;20371;-65
2022/04/28 04:13:52;;;;;;;10.90;4.97;;;8.40;99.90;;;;;;5073967;28;20040;-65
2022/04/28 04:16:18;;;;;;;8.18;4.90;;;8.40;99.90;;;;;;5073098;28;20584;-64
2022/04/28 04:18:44;;;;;;;11.25;5.38;;;8.30;99.90;;;;;;5073130;28;20087;-64
2022/04/28 04:21:09;;;;;;;11.18;4.72;;;8.30;99.90;;;;;;5072042;28;20497;-64
2022/04/28 04:23:35;;;;;;;11.93;5.25;;;8.30;99.90;;;;;;5073108;28;20141;-65
2022/04/28 04:26:03;;;;;;;9.82;4.78;;;8.30;99.90;;;;;;5073626;28;20056;-65
2022/04/28 04:28:29;;;;;;;13.15;5.40;;;8.30;99.90;;;;;;5073916;28;20047;-63
2022/04/28 04:33:40;;;;;;;10.48;4.72;;;8.20;99.90;;;;;;5074056;28;20146;-63
2022/04/28 04:36:06;;;;;;;9.85;4.93;;;8.20;99.90;;;;;;5072543;28;20123;-64
2022/04/28 04:38:32;;;;;;;8.63;4.63;;;8.20;99.90;;;;;;5073878;28;20052;-64
2022/04/28 04:40:57;;;;;;;11.65;4.97;;;8.10;99.90;;;;;;5073406;28;20040;-65
2022/04/28 04:43:23;;;;;;;9.93;4.60;;;8.20;99.90;;;;;;5056042;28;20052;-64
2022/04/28 04:45:48;;;;;;;11.60;5.20;;;8.10;99.90;;;;;;5072378;28;20049;-64
2022/04/28 04:48:14;;;;;;;9.27;4.78;;;8.20;99.90;;;;;;5073285;28;20052;-65
2022/04/28 04:50:40;;;;;;;10.32;4.50;;;8.10;99.90;;;;;;5073514;28;20123;-65
2022/04/28 04:53:07;;;;;;;9.73;4.60;;;8.10;99.90;;;;;;5073431;28;20052;-65
2022/04/28 04:55:33;;;;;;;8.93;4.03;;;8.10;99.90;;;;;;5073643;28;20080;-64
2022/04/28 04:58:00;;;;;;;14.48;4.57;;;8.10;99.90;;;;;;5071784;28;20048;-64
2022/04/28 05:00:26;;;;;;;12.07;4.75;;;8.10;99.90;;;;;;5073350;28;20124;-64
2022/04/28 05:02:51;;;;;;;14.02;3.97;;;8.20;99.90;;;;;;5072074;28;20529;-65
2022/04/28 05:05:17;;;;;;;13.10;4.70;;;8.20;99.90;;;;;;5071567;28;20076;-65
2022/04/28 05:07:43;;;;;;;9.60;4.20;;;8.20;99.90;;;;;;5072930;28;20548;-64
2022/04/28 05:10:09;;;;;;;8.50;3.80;;;8.20;99.90;;;;;;5072800;28;20040;-65
2022/04/28 05:12:35;;;;;;;10.48;3.83;;;8.00;99.90;;;;;;5073151;28;20044;-66
2022/04/28 05:15:01;;;;;;;9.48;3.78;;;8.20;99.90;;;;;;5072830;28;20058;-64
2022/04/28 05:17:27;;;;;;;13.30;4.22;;;8.20;99.90;;;;;;5071578;28;20060;-63
2022/04/28 05:19:56;;;;;;;10.23;3.67;;;8.20;99.90;;;;;;5073021;28;20052;-64
2022/04/28 05:22:22;;;;;;;17.10;4.53;;;8.20;99.90;;;;;;5072947;28;20056;-65
2022/04/28 05:24:48;;;;;;;10.23;4.55;;;8.30;99.90;;;;;;5072730;28;20040;-64
2022/04/28 05:27:14;;;;;;;12.77;4.07;;;8.40;99.90;;;;;;5072375;28;20050;-65
2022/04/28 05:29:40;;;;;;;9.48;3.85;;;8.50;99.90;;;;;;5054885;28;20044;-65
2022/04/28 05:32:06;;;;;;;13.85;4.15;;;8.70;99.90;;;;;;5070203;28;20055;-63
2022/04/28 05:34:31;;;;;;;9.73;4.57;;;8.50;99.90;;;;;;5071352;28;20048;-64
2022/04/28 05:36:57;;;;;;;7.85;4.03;;;8.50;99.90;;;;;;5072120;28;20059;-70
2022/04/28 05:39:24;;;;;;;16.15;3.83;;;8.50;99.90;;;;;;5072629;28;20055;-64
2022/04/28 05:41:50;;;;;;;10.25;4.00;;;8.60;99.90;;;;;;5072400;28;20048;-64
2022/04/28 05:47:00;;;;;;;12.32;4.07;;;8.70;99.90;;;;;;5070718;28;20060;-65
2022/04/28 05:49:26;;;;;;;9.73;3.75;;;8.80;99.90;;;;;;5071149;28;20088;-64
2022/04/28 05:51:52;;;;;;;9.23;3.67;;;8.90;99.90;;;;;;5072226;28;20161;-62
2022/04/28 05:54:18;;;;;;;9.63;3.30;;;9.00;99.90;;;;;;5054007;28;20135;-64
2022/04/28 05:56:44;;;;;;;6.57;3.33;;;9.10;99.90;;;;;;5070623;28;20127;-65
2022/04/28 05:59:10;;;;;;;10.77;3.63;;;9.20;99.90;;;;;;5071688;28;20036;-64
2022/04/28 06:01:37;;;;;;;11.88;3.70;;;9.30;99.90;;;;;;5071899;28;20045;-65
2022/04/28 06:04:04;;;;;;;8.88;3.53;;;9.30;99.90;;;;;;5071574;28;20067;-65
2022/04/28 06:06:30;;;;;;;6.95;2.92;;;9.30;99.90;;;;;;5072219;28;20493;-63
2022/04/28 06:08:55;;;;;;;8.85;3.10;;;9.40;99.90;;;;;;5070744;28;20041;-64
2022/04/28 06:11:21;;;;;;;11.40;3.38;;;9.60;99.90;;;;;;5070224;28;20044;-64
2022/04/28 06:13:47;;;;;;;7.25;2.78;;;10.10;99.90;;;;;;5071568;28;20048;-64
2022/04/28 06:16:12;;;;;;;10.35;2.95;;;11.00;99.90;;;;;;5053477;28;20056;-65
2022/04/28 06:18:38;;;;;;;9.02;2.70;;;12.00;99.90;;;;;;5071829;28;20116;-65
2022/04/28 06:21:04;;;;;;;9.48;2.40;;;13.10;99.90;;;;;;5070302;28;20048;-65
2022/04/28 06:23:29;;;;;;;10.23;2.20;;;13.90;99.90;;;;;;5070529;28;20063;-64
2022/04/28 06:25:55;;;;;;;10.30;2.55;;;14.40;99.90;;;;;;5071963;28;20094;-65
2022/04/28 06:28:21;;;;;;;4.95;1.92;;;14.90;99.90;;;;;;5071299;28;20128;-66
2022/04/28 06:30:47;;;;;;;8.95;2.05;;;15.20;99.90;;;;;;5071613;28;20056;-65
2022/04/28 06:33:12;;;;;;;10.07;2.17;;;15.70;99.90;;;;;;5053530;28;20521;-64
2022/04/28 06:35:38;;;;;;;19.17;3.50;;;15.90;99.60;;;;;;5036796;28;20071;-64
2022/04/28 06:38:04;;;;;;;10.00;2.40;;;16.40;98.30;;;;;;5071266;28;20127;-71
2022/04/28 06:40:30;;;;;;;9.18;2.28;;;16.90;97.30;;;;;;5053567;28;20127;-64
2022/04/28 06:42:56;;;;;;;8.57;2.22;;;17.60;97.40;;;;;;5071264;28;20405;-66
2022/04/28 06:45:23;;;;;;;7.63;1.88;;;17.60;95.80;;;;;;5053361;28;20114;-67
2022/04/28 06:47:49;;;;;;;6.68;2.13;;;17.80;95.00;;;;;;5071027;28;20087;-65
2022/04/28 06:50:15;;;;;;;9.13;2.28;;;17.90;94.90;;;;;;5071023;28;20516;-66
2022/04/28 06:52:41;;;;;;;9.27;2.67;;;18.00;93.20;;;;;;5071342;28;20425;-65
2022/04/28 06:55:08;;;;;;;7.38;2.00;;;17.90;93.50;;;;;;5070019;28;20210;-66
2022/04/28 06:57:34;;;;;;;8.68;2.08;;;17.50;93.30;;;;;;5071339;28;20088;-64
2022/04/28 07:00:01;;;;;;;7.25;2.00;;;17.20;93.50;;;;;;5070263;28;20118;-65
2022/04/28 07:02:27;;;;;;;8.68;2.10;;;16.40;94.30;;;;;;5071053;28;20052;-64
2022/04/28 07:04:53;;;;;;;10.70;2.40;;;15.90;94.80;;;;;;5070271;28;20478;-65
2022/04/28 07:07:18;;;;;;;6.50;1.77;;;15.90;95.40;;;;;;5070078;28;20496;-64
2022/04/28 07:09:44;;;;;;;10.98;2.45;;;15.70;95.40;;;;;;5070159;28;20067;-65
2022/04/28 07:12:13;;;;;;;7.63;2.47;;;16.10;94.90;;;;;;5071034;28;20055;-64
2022/04/28 07:14:38;;;;;;;9.35;2.50;;;16.30;94.70;;;;;;5069924;28;20040;-65
2022/04/28 07:17:04;;;;;;;8.77;2.53;;;15.90;95.00;;;;;;5071104;28;20142;-65
2022/04/28 07:19:30;;;;;;;9.82;2.55;;;15.60;96.10;;;;;;5070553;28;20131;-66
2022/04/28 07:21:55;;;;;;;11.25;2.58;;;16.10;95.70;;;;;;5071186;28;20049;-65
2022/04/28 07:24:21;;;;;;;10.02;2.30;;;16.90;93.90;;;;;;5069451;28;20600;-65
2022/04/28 07:26:47;;;;;;;6.07;1.83;;;17.30;94.30;;;;;;5071068;28;20056;-66
2022/04/28 07:29:13;;;;;;;5.97;1.80;;;17.80;92.70;;;;;;5069712;28;20041;-65
2022/04/28 07:31:38;;;;;;;7.13;2.20;;;18.20;91.80;;;;;;5069938;28;20508;-65
2022/04/28 07:34:04;;;;;;;8.00;2.28;;;18.70;91.10;;;;;;5070117;28;20047;-66
2022/04/28 07:36:30;;;;;;;9.23;2.28;;;19.00;90.90;;;;;;5070747;28;20325;-65
2022/04/28 07:38:56;;;;;;;10.82;2.17;;;18.70;90.60;;;;;;5071075;28;20041;-64
2022/04/28 07:41:21;;;;;;;8.82;2.15;;;18.50;90.70;;;;;;5070753;28;20045;-64
2022/04/28 07:43:47;;;;;;;10.52;2.72;;;17.60;91.50;;;;;;5053209;28;20048;-67
2022/04/28 07:46:13;;;;;;;10.50;2.67;;;16.80;92.40;;;;;;5070213;28;20047;-65
2022/04/28 07:48:39;;;;;;;8.10;2.28;;;16.10;93.40;;;;;;5070948;28;20052;-65
2022/04/28 07:51:06;;;;;;;8.95;2.47;;;15.30;94.40;;;;;;5070513;28;20048;-64
2022/04/28 07:53:32;;;;;;;9.57;2.58;;;15.40;94.70;;;;;;5070592;28;20041;-64
2022/04/28 07:56:11;;;;;;;10.02;2.90;;;15.30;94.50;;;;;;5072857;28;20052;-65
2022/04/28 07:58:37;;;;;;;7.70;2.00;;;15.00;94.80;;;;;;5073604;28;20064;-65
2022/04/28 08:01:04;;;;;;;8.52;2.35;;;14.70;95.60;;;;;;5074362;28;20128;-64
2022/04/28 08:03:30;;;;;;;6.55;1.83;;;14.50;96.10;;;;;;5073981;28;20102;-64
2022/04/28 08:05:56;;;;;;;7.60;2.40;;;14.60;96.80;;;;;;5074317;28;20269;-64
2022/04/28 08:08:22;;;;;;;8.85;2.17;;;14.70;96.20;;;;;;5073935;28;20052;-64
2022/04/28 08:10:48;;;;;;;11.35;2.65;;;14.60;96.10;;;;;;5072942;28;20127;-64
2022/04/28 08:13:14;;;;;;;7.55;2.03;;;14.50;95.80;;;;;;5073180;28;20576;-64
2022/04/28 08:15:40;;;;;;;5.20;1.90;;;14.40;95.80;;;;;;5074372;28;20053;-63
2022/04/28 08:18:06;;;;;;;9.90;2.58;;;14.10;96.10;;;;;;5074446;28;20045;-63
2022/04/28 08:20:32;;;;;;;8.82;2.42;;;13.90;96.20;;;;;;5073854;28;20041;-64
2022/04/28 08:22:57;;;;;;;8.38;2.60;;;13.80;96.90;;;;;;5073938;28;20045;-64
2022/04/28 08:25:23;;;;;;;9.82;2.70;;;13.80;97.20;;;;;;5073739;28;20076;-65
2022/04/28 08:27:49;;;;;;;8.68;3.00;;;13.60;97.50;;;;;;5072809;28;20496;-64
2022/04/28 08:30:15;;;;;;;6.88;2.28;;;13.50;97.60;;;;;;5074061;28;20056;-64
2022/04/28 08:32:41;;;;;;;9.52;2.72;;;13.50;97.70;;;;;;5072643;28;20044;-65
2022/04/28 08:35:07;;;;;;;6.88;2.75;;;13.60;97.70;;;;;;5073863;28;20105;-64
2022/04/28 08:37:33;;;;;;;9.65;2.92;;;13.60;97.50;;;;;;5072247;28;20119;-62
2022/04/28 08:39:59;;;;;;;10.10;3.22;;;13.60;97.80;;;;;;5072654;28;20555;-64
2022/04/28 08:42:26;;;;;;;8.65;3.30;;;13.60;97.90;;;;;;5073427;28;20044;-64
2022/04/28 08:44:56;;;;;;;12.32;3.28;;;13.60;97.90;;;;;;5072540;28;20040;-64
2022/04/28 08:47:21;;;;;;;10.82;3.92;;;13.50;98.00;;;;;;5072081;28;20064;-65
2022/04/28 08:49:50;;;;;;;14.05;3.53;;;13.50;98.40;;;;;;5072073;28;20058;-63
2022/04/28 08:52:17;;;;;;;8.13;2.80;;;13.50;98.40;;;;;;5073606;28;20040;-65
2022/04/28 08:54:47;;;;;;;15.55;3.15;;;13.50;98.30;;;;;;5073104;28;20044;-63
2022/04/28 08:57:14;;;;;;;10.18;3.28;;;13.30;98.40;;;;;;5072480;28;20402;-64
2022/04/28 08:59:40;;;;;;;9.75;2.60;;;13.30;98.50;;;;;;5072881;28;20489;-64
2022/04/28 09:02:10;;;;;;;13.27;2.92;;;13.20;98.90;;;;;;5073480;28;20145;-64
2022/04/28 09:04:36;;;;;;;8.93;3.17;;;13.20;99.50;;;;;;5072967;28;20356;-63
2022/04/28 09:07:05;;;;;;;11.70;3.05;;;13.10;99.90;;;;;;5073154;28;20098;-63
2022/04/28 09:09:33;;;;;;;10.30;2.70;;;13.10;99.70;;;;;;5072817;28;20135;-65
2022/04/28 09:12:00;;;;;;;9.63;3.08;;;13.20;99.60;;;;;;5073022;28;20139;-63
2022/04/28 09:14:26;;;;;;;7.80;2.63;;;13.10;99.60;;;;;;5072718;28;20093;-63
2022/04/28 09:17:03;;;;;;;12.32;2.47;;;13.20;99.40;;;;;;5073364;28;20390;-62
2022/04/28 09:19:34;;;;;;;6.93;2.40;;;13.20;99.40;;;;;;5072355;28;20482;-63
2022/04/28 09:22:12;;;;;;;8.88;3.08;;;13.10;99.70;;;;;;5072743;28;20127;-62
2022/04/28 09:24:44;;;;;;;8.15;3.00;;;13.10;99.30;;;;;;5072812;28;20048;-63
2022/04/28 09:27:11;;;;;;;9.88;2.97;;;13.10;99.60;;;;;;5071993;28;20056;-63
2022/04/28 09:29:41;;;;;;;15.20;3.03;;;13.10;99.70;;;;;;5072348;28;20070;-61
2022/04/28 09:32:11;;;;;;;11.00;2.83;;;13.00;99.60;;;;;;5071533;28;20111;-64
2022/04/28 09:34:49;;;;;;;9.85;3.13;;;13.00;99.90;;;;;;5072615;28;20074;-63
2022/04/28 09:37:20;;;;;;;10.25;2.92;;;12.80;99.90;;;;;;5072613;28;20410;-64
2022/04/28 09:42:40;;;;;;;8.50;2.80;;;12.80;99.90;;;;;;5071676;28;20048;-64
2022/04/28 09:45:08;;;;;;;13.38;3.15;;;12.80;99.90;;;;;;5072116;28;20123;-65
2022/04/28 09:47:34;;;;;;;12.20;3.20;;;12.90;99.90;;;;;;5071536;28;20060;-61
2022/04/28 09:50:00;;;;;;;11.18;2.88;;;12.70;99.90;;;;;;5072171;28;20044;-63
2022/04/28 09:52:26;;;;;;;10.10;2.83;;;12.80;99.90;;;;;;5072219;28;20079;-64
2022/04/28 09:54:53;;;;;;;8.77;2.45;;;12.70;99.90;;;;;;5072262;28;20041;-62
2022/04/28 09:57:20;;;;;;;10.43;2.75;;;12.80;99.90;;;;;;5072130;28;20056;-62
2022/04/28 09:59:47;;;;;;;12.23;2.95;;;12.80;99.90;;;;;;5071802;28;20052;-64
2022/04/28 10:02:17;;;;;;;10.77;3.00;;;12.90;99.90;;;;;;5072080;28;20048;-62
2022/04/28 10:04:43;;;;;;;7.80;2.67;;;12.90;99.90;;;;;;5071552;28;20131;-62
2022/04/28 10:07:10;;;;;;;8.63;2.60;;;12.70;99.90;;;;;;5071971;28;20288;-62
2022/04/28 10:09:36;;;;;;;11.05;3.42;;;12.80;99.90;;;;;;5071633;28;20382;-63
2022/04/28 10:12:05;;;;;;;9.88;2.38;;;12.70;99.90;;;;;;5070679;28;20127;-63
2022/04/28 10:14:33;;;;;;;11.77;2.83;;;12.70;99.90;;;;;;5071874;28;20056;-62
2022/04/28 10:17:01;;;;;;;11.32;2.65;;;12.70;99.90;;;;;;5071889;28;20041;-62
2022/04/28 10:19:35;;;;;;;8.18;2.45;;;12.80;99.90;;;;;;5071255;28;20053;-63
2022/04/28 10:22:02;;;;;;;7.20;2.33;;;12.90;99.90;;;;;;5054049;28;20363;-62
2022/04/28 10:33:15;;;;;;;13.87;2.60;;;12.90;99.90;;;;;;5071843;28;20086;-61
2022/04/28 10:35:48;;;;;;;12.43;3.20;;;13.00;99.90;;;;;;5070014;28;20287;-63
2022/04/28 10:38:31;;;;;;;10.35;2.55;;;13.10;99.90;;;;;;5071685;28;20044;-63
2022/04/28 10:41:04;;;;;;;11.05;2.40;;;13.20;99.90;;;;;;5071587;28;20048;-62
2022/04/28 10:43:33;;;;;;;10.02;2.90;;;13.30;99.90;;;;;;5070630;28;20048;-62
2022/04/28 10:46:07;;;;;;;8.15;2.72;;;13.20;99.90;;;;;;5070467;28;20048;-63
2022/04/28 10:48:35;;;;;;;9.70;2.47;;;13.10;99.90;;;;;;5070070;28;20088;-63
2022/04/28 10:51:10;;;;;;;9.43;2.40;;;13.00;99.90;;;;;;5071533;28;20056;-62
2022/04/28 10:53:54;;;;;;;7.22;2.67;;;12.90;99.90;;;;;;5071044;28;20543;-64
2022/04/28 10:56:20;;;;;;;8.32;2.40;;;12.90;99.90;;;;;;5071486;28;20101;-63
2022/04/28 10:58:45;;;;;;;8.52;2.65;;;12.90;99.90;;;;;;5071266;28;20044;-62
2022/04/28 11:01:27;;;;;;;10.10;2.58;;;13.10;99.90;;;;;;5071460;28;20044;-63
2022/04/28 11:03:55;;;;;;;8.30;2.70;;;13.20;99.90;;;;;;5070884;28;20509;-63
2022/04/28 11:06:28;;;;;;;10.73;2.58;;;13.30;99.90;;;;;;5071413;28;20367;-62
2022/04/28 11:08:56;;;;;;;12.82;2.75;;;13.40;99.90;;;;;;5070893;28;20048;-63
2022/04/28 11:11:25;;;;;;;9.60;2.30;;;13.30;99.80;;;;;;5070080;28;20135;-63
2022/04/28 11:13:57;;;;;;;11.35;2.45;;;13.40;99.60;;;;;;5071266;28;20432;-62
2022/04/28 11:16:24;;;;;;;7.72;2.20;;;13.40;99.30;;;;;;5071549;28;20044;-65
2022/04/28 11:18:50;;;;;;;10.73;2.45;;;13.30;99.60;;;;;;5070801;28;20102;-63
2022/04/28 11:21:16;;;;;;;9.65;2.10;;;13.30;99.40;;;;;;5071206;28;20046;-63
2022/04/28 11:23:46;;;;;;;9.27;2.20;;;13.40;99.80;;;;;;5070935;28;20051;-62
2022/04/28 11:26:13;;;;;;;10.05;2.13;;;13.30;99.90;;;;;;5071123;28;20165;-64
2022/04/28 11:28:40;;;;;;;7.43;2.00;;;13.40;99.90;;;;;;5071054;28;20056;-63
2022/04/28 11:31:10;;;;;;;8.90;2.45;;;13.40;99.90;;;;;;5073490;28;20393;-63
2022/04/28 11:33:43;;;;;;;10.82;2.15;;;13.40;99.70;;;;;;5057259;28;20505;-63
2022/04/28 11:36:25;;;;;;;13.55;2.75;;;13.30;99.80;;;;;;5075042;28;20044;-65
2022/04/28 11:38:56;;;;;;;29.52;3.70;;;13.30;99.90;;;;;;5073571;28;20060;-63
2022/04/28 11:41:25;;;;;;;14.38;2.72;;;13.30;99.90;;;;;;5073745;28;20371;-62
2022/04/28 11:43:52;;;;;;;11.30;2.38;;;13.30;99.90;;;;;;5074446;28;20406;-62
2022/04/28 11:46:18;;;;;;;9.18;2.80;;;13.30;99.90;;;;;;5074721;28;20048;-62
2022/04/28 11:48:44;;;;;;;13.90;2.33;;;13.30;99.90;;;;;;5074142;28;20082;-64
2022/04/28 11:51:10;;;;;;;10.38;2.30;;;13.30;99.90;;;;;;5074304;28;20493;-63
2022/04/28 11:53:44;;;;;;;21.00;3.92;;;13.40;99.90;;;;;;5074611;28;20051;-63
2022/04/28 11:56:28;;;;;;;11.68;2.60;;;13.40;99.90;;;;;;5074772;28;20127;-63
2022/04/28 11:58:54;;;;;;;;;;;13.40;99.90;;;;;;5074664;28;20398;-63
2022/04/28 12:01:21;;;;;;;10.57;2.88;;;13.30;99.90;;;;;;5074555;28;19920;-62
2022/04/28 12:03:54;;;;;;;9.85;2.47;;;13.30;99.90;;;;;;5074160;28;20060;-63
2022/04/28 12:06:21;;;;;;;9.73;2.28;;;13.30;99.70;;;;;;5074575;28;20052;-62
2022/04/28 12:08:53;;;;;;;9.00;2.78;;;13.20;99.70;;;;;;5074065;28;20053;-62
2022/04/28 12:14:25;;;;;;;10.68;2.75;;;13.20;99.70;;;;;;5073964;28;20056;-62
2022/04/28 12:19:49;;;;;;;8.48;2.60;;;13.30;99.90;;;;;;5072805;28;20052;-64
2022/04/28 12:22:24;;;;;;;8.98;2.78;;;13.30;99.90;;;;;;5073201;28;20056;-65
2022/04/28 12:24:49;;;;;;;8.95;2.35;;;13.20;99.90;;;;;;5072614;28;20513;-64
2022/04/28 12:27:15;;;;;;;10.27;2.65;;;13.10;99.90;;;;;;5073893;28;20045;-64
2022/04/28 12:29:52;;;;;;;10.07;2.83;;;13.10;99.90;;;;;;5073650;28;20040;-62
2022/04/28 12:32:22;;;;;;;7.18;2.50;;;13.00;99.80;;;;;;5072315;28;20524;-62
2022/04/28 12:35:03;;;;;;;9.32;3.33;;;13.00;99.90;;;;;;5073483;28;20045;-63
2022/04/28 12:37:29;;;;;;;7.15;2.08;;;12.90;99.90;;;;;;5073768;28;20040;-62
2022/04/28 12:39:57;;;;;;;22.42;3.00;;;13.10;99.90;;;;;;5073351;28;20391;-62
2022/04/28 12:42:29;;;;;;;7.97;2.30;;;13.30;99.90;;;;;;5073274;28;20053;-63
2022/04/28 12:44:57;;;;;;;8.85;2.60;;;13.40;99.80;;;;;;5073417;28;20137;-63
2022/04/28 12:47:34;;;;;;;7.75;2.58;;;13.20;99.90;;;;;;5073445;28;20052;-63
2022/04/28 12:50:02;;;;;;;7.65;2.25;;;13.10;99.90;;;;;;5072068;28;20505;-63
2022/04/28 12:52:33;;;;;;;10.73;2.85;;;12.90;99.90;;;;;;5055951;28;20202;-63
2022/04/28 12:55:06;;;;;;;11.90;2.28;;;12.90;99.90;;;;;;5073195;28;20398;-62
2022/04/28 12:57:33;;;;;;;9.65;2.53;;;13.00;99.90;;;;;;5073302;28;20045;-63
2022/04/28 13:00:04;;;;;;;11.20;2.80;;;13.20;99.90;;;;;;5071993;28;20052;-62
2022/04/28 13:02:32;;;;;;;9.82;2.38;;;13.30;99.90;;;;;;5072126;28;20083;-63
2022/04/28 13:05:13;;;;;;;10.38;2.60;;;13.20;99.90;;;;;;5072972;28;20503;-61
2022/04/28 13:07:42;;;;;;;11.32;2.22;;;13.10;99.90;;;;;;5073108;28;20470;-63
2022/04/28 13:10:16;;;;;;;11.48;2.40;;;13.00;99.90;;;;;;5072784;28;20048;-64
2022/04/28 13:12:42;;;;;;;7.50;2.33;;;13.00;99.90;;;;;;5073158;28;20059;-63
2022/04/28 13:15:09;;;;;;;5.90;2.00;;;13.10;99.90;;;;;;5055016;28;20056;-62
2022/04/28 13:17:36;;;;;;;9.35;2.45;;;13.00;99.90;;;;;;5073158;28;20036;-63
2022/04/28 13:20:04;;;;;;;7.00;2.47;;;13.10;99.90;;;;;;5071647;28;20056;-62
2022/04/28 13:22:30;;;;;;;8.07;2.28;;;13.20;99.90;;;;;;5072933;28;20466;-62
2022/04/28 13:24:56;;;;;;;7.75;2.30;;;13.20;99.90;;;;;;5072608;28;20105;-63